TJSJ/SJU METAR and TAF weather

Enter ICAO airport designator
Station Type Date Time Source
TJSJ METAR 2021/01/22 06:56 UTC NOAA

TJSJ 220656Z 00000KT 10SM FEW020 23/21 A2996 RMK AO2 SLP146 T02330211


Station Type Date Time Source
TJSJ Decoded METAR 2021/01/22 06:56 UTC NOAA

San Juan, Luis Munoz Marin International Airport, PR, United States (TJSJ) 18-27N 066-00W
Jan 22, 2021 - 01:56 AM EST / 2021.01.22 0656 UTC
Wind: Calm:0
Visibility: 10 mile(s):0
Sky conditions: mostly clear
Temperature: 73.9 F (23.3 C)
Dew Point: 70.0 F (21.1 C)
Relative Humidity: 87%
Pressure (altimeter): 29.96 in. Hg (1014 hPa)
ob: TJSJ 220656Z 00000KT 10SM FEW020 23/21 A2996 RMK AO2 SLP146 T02330211
cycle: 7

Station Type Date Time Source
TJSJ TAF 2021/01/22 06:28 UTC NOAA

TAF TJSJ 220526Z 2206/2306 09008KT P6SM SCT030
FM220630 VRB03KT P6SM VCSH FEW025 SCT050
FM221400 06012KT P6SM FEW025 SCT060
FM222300 08007KT P6SM SCT030

Example: see airport list